Terminal Aerodrome Forecast
Issued by NWS

Home | Current Version | Previous Version | Text Only | Print | Product List | Glossary Off
Versions: 1 2 3 4 5 6 7 8 9 10 11 12 13 14 15 16 17 18 19 20 21

000
FTUS43 KICT 191700
TAFRSL
TAF
KRSL 191720Z 1918/2018 19015KT P6SM SCT120
     FM200000 16006KT P6SM SCT040 BKN080
     FM201000 01006KT P6SM SCT060=

USA.gov is the U.S. government's official web portal to all federal, state and local government web resources and services.